CST,Max TemperatureF,Mean TemperatureF,Min TemperatureF,Max Dew PointF,MeanDew PointF,Min DewpointF,Max Humidity, Mean Humidity, Min Humidity, Max Sea Level PressureIn, Mean Sea Level PressureIn, Min Sea Level PressureIn, Max VisibilityMiles, Mean VisibilityMiles, Min VisibilityMiles, Max Wind SpeedMPH, Mean Wind SpeedMPH, Max Gust SpeedMPH,PrecipitationIn, CloudCover, Events, WindDirDegrees
2012-12-1,50,38,26,37,33,25,100,83,58,29.93,29.78,29.69,10,6,2,18,11,29,0.00,2,,225
2012-12-2,53,38,23,39,32,21,100,82,54,29.94,29.81,29.61,10,6,0,20,7,26,0.00,3,Fog-Snow,178
2012-12-3,53,43,33,45,37,25,100,75,50,29.96,29.66,29.47,10,9,3,29,15,38,0.00,1,Rain,265
2012-12-4,33,22,12,27,14,7,92,72,51,30.37,30.21,29.97,10,10,10,16,10,21,0.00,0,,352
2012-12-5,41,28,15,28,19,10,86,64,52,30.36,30.02,29.71,10,10,5,23,11,32,0.00,1,,164
2012-12-6,42,30,17,34,25,16,93,71,56,30.01,29.88,29.70,10,10,10,24,10,29,0.00,1,Rain,336
2012-12-7,30,24,19,28,24,18,100,93,86,30.06,30.02,29.99,10,6,2,6,1,,0.04,5,Snow,92
2012-12-8,30,26,24,28,25,23,100,95,93,30.03,29.97,29.91,10,5,0,16,6,20,0.05,8,Fog-Snow,158
2012-12-9,30,27,24,28,27,21,100,94,86,29.91,29.88,29.85,4,2,0,26,13,37,0.17,8,Snow,97
2012-12-10,,,,,,,,,,,,,,,,,,,,,,
2012-12-11,15,4,-7,12,2,-9,100,84,73,29.93,29.89,29.81,10,9,4,12,5,,0.00,4,Snow,14
2012-12-12,30,18,5,25,18,1,100,85,69,29.92,29.81,29.75,10,9,1,16,8,23,0.00,2,,163
2012-12-13,21,13,5,19,12,1,100,90,80,30.11,30.01,29.86,10,9,4,15,5,,0.00,1,,5
2012-12-14,35,19,3,30,17,1,100,85,69,30.10,29.90,29.69,10,8,0,14,5,18,0.00,2,Snow,147
2012-12-15,37,27,17,34,30,16,100,92,75,29.68,29.60,29.52,10,5,1,22,10,28,0.36,7,Snow,56
2012-12-16,23,18,12,19,16,9,100,90,85,29.82,29.76,29.66,10,10,7,18,13,25,0.00,7,,350
2012-12-17,23,20,19,21,19,18,100,94,93,29.80,29.72,29.64,10,6,1,9,2,,0.00,8,Snow,350
2012-12-18,28,26,23,27,24,21,100,95,86,29.78,29.66,29.59,10,4,2,9,7,,0.00,8,Snow,212
2012-12-19,24,14,5,21,14,3,100,89,74,30.04,29.92,29.78,10,9,5,12,3,,0.00,2,,299
2012-12-20,21,11,1,18,10,0,93,86,79,30.17,30.05,29.99,10,9,4,24,14,29,0.00,7,Snow,1
2012-12-21,10,0,-9,7,-3,-13,92,85,78,30.29,30.21,30.09,10,9,4,10,5,,0.00,1,Snow,335
2012-12-22,17,10,3,10,7,1,92,83,73,30.10,30.03,29.98,10,10,10,16,8,20,0.00,0,,19
2012-12-23,15,8,1,10,5,-2,92,82,68,30.13,30.08,30.03,10,10,10,9,5,,0.00,3,Snow,54
2012-12-24,15,4,-9,10,-3,-15,92,81,72,30.32,30.17,30.03,10,8,2,18,9,24,0.00,4,Snow,10
2012-12-25,0,-6,-11,-8,-12,-17,85,80,66,30.50,30.44,30.33,10,10,10,9,7,,0.00,0,,343
2012-12-26,8,0,-9,1,-4,-15,92,81,72,30.39,30.29,30.21,10,9,3,0,0,,0.00,7,Snow,-1
2012-12-27,17,8,-2,14,9,-6,93,84,73,30.22,30.16,30.12,10,6,1,9,3,,0.01,8,Snow,125
2012-12-28,17,12,6,12,10,5,100,90,79,30.11,30.07,30.03,10,6,0,10,4,,0.00,8,Snow,24
2012-12-29,12,2,-7,10,1,-11,100,88,78,30.13,30.08,30.04,10,7,0,7,1,,0.00,4,Fog-Snow,307
2012-12-30,17,5,-7,16,3,-11,93,86,73,30.12,29.99,29.85,10,10,7,24,5,33,0.00,1,Snow,144
2012-12-31,17,2,-16,12,-4,-20,92,77,67,30.25,30.20,30.05,10,10,10,18,10,26,0.00,2,Snow,354